Time;durP1;ratioP1;P1;durP2;ratioP2;P2;SDS_P1;SDS_P2;PMS_P1;PMS_P2;Temp;Humidity;BMP_temperature;BMP_pressure;BME280_temperature;BME280_humidity;BME280_pressure;Samples;Min_cycle;Max_cycle;Signal;HPM_P1;HPM_P2
2022/03/24 00:01:28;;;;;;;;;58.00;45.75;;;;;17.67;33.20;102468.09;5084222;28;61835;-81
2022/03/24 00:03:54;;;;;;;;;54.25;40.75;;;;;17.61;33.25;102460.78;5084304;28;62091;-81
2022/03/24 00:06:19;;;;;;;;;56.00;43.25;;;;;17.58;33.20;102469.50;5066472;28;61824;-81
2022/03/24 00:08:45;;;;;;;;;52.50;40.00;;;;;17.56;33.17;102460.56;5065811;28;61800;-80
2022/03/24 00:11:10;;;;;;;;;52.00;40.50;;;;;17.54;33.38;102454.28;5084054;28;61891;-81
2022/03/24 00:13:36;;;;;;;;;53.50;41.25;;;;;17.52;32.93;102455.06;5084458;28;61884;-81
2022/03/24 00:16:03;;;;;;;;;46.25;39.75;;;;;17.49;33.23;102455.84;5066318;28;61991;-81
2022/03/24 00:18:32;;;;;;;;;56.50;41.00;;;;;17.43;33.17;102457.34;5065922;28;61868;-81
2022/03/24 00:21:01;;;;;;;;;61.25;45.25;;;;;17.43;33.03;102460.00;5065704;28;63966;-81
2022/03/24 00:23:27;;;;;;;;;50.75;40.75;;;;;17.35;33.27;102452.63;5084058;28;61951;-80
2022/03/24 00:25:53;;;;;;;;;56.00;42.75;;;;;17.29;33.07;102447.03;5084575;28;61753;-81
2022/03/24 00:28:19;;;;;;;;;56.00;42.75;;;;;17.26;32.97;102446.88;5083896;28;61749;-81
2022/03/24 00:30:45;;;;;;;;;53.00;40.25;;;;;17.27;33.18;102439.84;5065550;28;63968;-81
2022/03/24 00:33:11;;;;;;;;;57.00;43.50;;;;;17.25;33.11;102442.44;5083819;28;61713;-81
2022/03/24 00:35:37;;;;;;;;;52.00;40.25;;;;;17.17;33.14;102442.06;5082982;28;61861;-81
2022/03/24 00:38:04;;;;;;;;;52.25;41.50;;;;;17.14;33.22;102441.06;5083990;28;61685;-81
2022/03/24 00:40:30;;;;;;;;;56.75;43.00;;;;;17.13;33.20;102439.22;5083256;28;61782;-81
2022/03/24 00:42:55;;;;;;;;;57.25;44.00;;;;;17.11;33.38;102438.25;5083914;28;62102;-81
2022/03/24 00:45:21;;;;;;;;;52.75;42.00;;;;;16.98;33.42;102438.56;5084392;28;61802;-80
2022/03/24 00:47:46;;;;;;;;;46.50;38.00;;;;;16.94;33.47;102443.69;5084304;28;62150;-81
2022/03/24 00:50:13;;;;;;;;;50.50;41.75;;;;;16.92;33.65;102444.47;5083215;28;61937;-81
2022/03/24 00:52:42;;;;;;;;;54.75;42.75;;;;;16.92;33.72;102437.44;5083452;28;61947;-80
2022/03/24 00:55:13;;;;;;;;;56.50;44.00;;;;;16.88;34.04;102432.84;5065495;28;62037;-80
2022/03/24 00:57:43;;;;;;;;;60.00;43.50;;;;;16.85;33.41;102437.09;5065557;28;61881;-81
2022/03/24 01:00:12;;;;;;;;;47.00;39.25;;;;;16.86;33.83;102434.53;5081714;28;64585;-80
2022/03/24 01:02:37;;;;;;;;;48.00;40.50;;;;;16.85;34.00;102431.78;5083758;28;61949;-81
2022/03/24 01:05:08;;;;;;;;;50.25;39.25;;;;;16.82;33.86;102431.66;5065351;28;61989;-81
2022/03/24 01:07:37;;;;;;;;;63.00;47.00;;;;;16.81;34.04;102432.47;5083535;28;61946;-80
2022/03/24 01:10:06;;;;;;;;;59.50;41.75;;;;;16.80;33.77;102430.66;5083267;28;61957;-80
2022/03/24 01:12:32;;;;;;;;;56.00;42.25;;;;;16.78;33.85;102425.28;5083571;28;61741;-80
2022/03/24 01:14:58;;;;;;;;;55.25;44.25;;;;;16.74;33.82;102428.63;5083380;28;61720;-81
2022/03/24 01:17:26;;;;;;;;;52.00;41.50;;;;;16.72;33.83;102425.88;5083820;28;62121;-81
2022/03/24 01:19:52;;;;;;;;;54.25;42.25;;;;;16.68;33.90;102430.97;5081771;28;62936;-80
2022/03/24 01:22:18;;;;;;;;;49.25;41.00;;;;;16.56;34.23;102432.25;5064700;28;61903;-81
2022/03/24 01:24:45;;;;;;;;;56.75;43.50;;;;;16.56;34.40;102428.69;5064979;28;61985;-80
2022/03/24 01:27:14;;;;;;;;;55.75;41.00;;;;;16.55;33.91;102424.22;5083165;28;62720;-80
2022/03/24 01:29:40;;;;;;;;;55.75;42.75;;;;;16.55;34.31;102430.41;5081467;28;62988;-80
2022/03/24 01:32:07;;;;;;;;;52.25;37.25;;;;;16.53;34.65;102424.13;5083216;28;61900;-81
2022/03/24 01:34:34;;;;;;;;;59.00;43.75;;;;;16.55;34.28;102426.84;5064891;28;61773;-81
2022/03/24 01:37:00;;;;;;;;;49.75;40.00;;;;;16.52;34.68;102424.97;5064686;28;62201;-80
2022/03/24 01:39:25;;;;;;;;;55.25;42.00;;;;;16.49;34.32;102419.50;5082705;28;62042;-81
2022/03/24 01:41:51;;;;;;;;;53.25;41.25;;;;;16.50;34.53;102423.09;5064988;28;61834;-80
2022/03/24 01:44:19;;;;;;;;;60.75;43.25;;;;;16.48;34.59;102412.41;5081702;27;62103;-80
2022/03/24 01:47:05;;;;;;;;;56.00;44.75;;;;;16.47;34.45;102407.03;5083186;28;61678;-80
2022/03/24 01:49:49;;;;;;;;;54.00;44.00;;;;;16.46;34.65;102407.88;5082239;28;61865;-80
2022/03/24 01:52:17;;;;;;;;;48.75;43.00;;;;;16.43;34.80;102406.00;5082633;28;62554;-81
2022/03/24 01:54:45;;;;;;;;;53.25;39.00;;;;;16.39;34.88;102409.34;5083314;28;61842;-81
2022/03/24 01:57:12;;;;;;;;;56.75;42.00;;;;;16.35;34.71;102405.63;5064320;28;62233;-81
2022/03/24 01:59:40;;;;;;;;;55.25;43.25;;;;;16.34;34.98;102406.44;5081065;28;62905;-80
2022/03/24 02:02:07;;;;;;;;;58.25;43.00;;;;;16.28;35.07;102405.25;5082847;28;61765;-80
2022/03/24 02:04:35;;;;;;;;;50.00;39.75;;;;;16.23;35.12;102405.06;5082702;28;61804;-80
2022/03/24 02:07:04;;;;;;;;;57.50;43.00;;;;;16.22;35.10;102402.34;5081232;28;63065;-81
2022/03/24 02:09:30;;;;;;;;;50.00;39.75;;;;;16.19;35.33;102400.44;5063961;28;64898;-80
2022/03/24 02:11:55;;;;;;;;;51.75;40.00;;;;;16.20;35.33;102404.91;5082751;28;61730;-80
2022/03/24 02:14:21;;;;;;;;;55.50;43.50;;;;;16.20;35.45;102396.06;5082550;28;62141;-80
2022/03/24 02:16:48;;;;;;;;;56.00;42.25;;;;;16.21;35.64;102405.81;5083083;28;61840;-80
2022/03/24 02:19:21;;;;;;;;;51.75;41.25;;;;;16.17;35.60;102401.22;5081619;28;61912;-80
2022/03/24 02:21:47;;;;;;;;;54.75;42.25;;;;;16.14;35.69;102399.31;5082629;28;61852;-81
2022/03/24 02:24:14;;;;;;;;;43.50;39.25;;;;;16.14;35.74;102399.31;5064287;28;61864;-80
2022/03/24 02:26:42;;;;;;;;;52.50;42.00;;;;;16.12;35.77;102395.69;5082226;28;61952;-80
2022/03/24 02:29:10;;;;;;;;;55.25;42.25;;;;;16.12;35.87;102399.25;5082165;28;62541;-81
2022/03/24 02:31:39;;;;;;;;;53.75;42.00;;;;;16.11;35.94;102396.50;5066812;28;61805;-80
2022/03/24 02:36:52;;;;;;;;;58.00;41.00;;;;;16.06;36.25;102401.59;5086248;28;61806;-80
2022/03/24 02:39:17;;;;;;;;;52.00;40.75;;;;;16.04;35.93;102402.38;5085687;28;62129;-81
2022/03/24 02:41:51;;;;;;;;;46.00;40.00;;;;;16.01;35.68;102400.47;5067729;28;61974;-81
2022/03/24 02:44:28;;;;;;;;;55.50;42.50;;;;;15.98;35.43;102394.13;5084718;27;61818;-80
2022/03/24 02:46:56;;;;;;;;;52.75;42.50;;;;;15.98;36.02;102403.00;5085985;28;61896;-80
2022/03/24 02:49:24;;;;;;;;;57.50;43.25;;;;;15.95;36.02;102403.72;5083200;27;61848;-80
2022/03/24 02:51:50;;;;;;;;;50.50;39.75;;;;;15.93;36.10;102408.03;5085935;28;61775;-80
2022/03/24 02:54:16;;;;;;;;;57.75;42.75;;;;;15.91;36.34;102406.16;5084566;27;61976;-80
2022/03/24 02:56:42;;;;;;;;;52.75;40.75;;;;;15.90;36.59;102399.97;5067245;28;61741;-80
2022/03/24 02:59:09;;;;;;;;;55.50;40.75;;;;;15.80;36.93;102410.94;5085222;28;61811;-80
2022/03/24 03:01:35;;;;;;;;;54.00;42.25;;;;;15.74;36.56;102405.34;5085578;28;61955;-81
2022/03/24 03:04:01;;;;;;;;;42.25;37.00;;;;;15.75;36.68;102404.53;5066836;28;62034;-81
2022/03/24 03:06:27;;;;;;;;;50.75;40.25;;;;;15.72;37.14;102407.00;5067627;28;62079;-81
2022/03/24 03:08:52;;;;;;;;;51.25;40.75;;;;;15.69;36.84;102402.44;5066635;28;63493;-80
2022/03/24 03:11:20;;;;;;;;;54.25;43.50;;;;;15.69;37.06;102398.88;5067442;28;61920;-80
2022/03/24 03:13:47;;;;;;;;;56.75;42.25;;;;;15.70;36.83;102400.69;5085745;28;61961;-80
2022/03/24 03:16:13;;;;;;;;;55.75;42.75;;;;;15.69;36.89;102396.22;5085494;28;61780;-80
2022/03/24 03:18:42;;;;;;;;;53.00;40.00;;;;;15.68;37.34;102397.06;5084313;28;62670;-80
2022/03/24 03:21:11;;;;;;;;;52.00;42.50;;;;;15.64;37.16;102400.38;5066876;28;61860;-80
2022/03/24 03:23:38;;;;;;;;;51.75;39.50;;;;;15.63;37.27;102399.47;5085243;28;61701;-80
2022/03/24 03:26:07;;;;;;;;;50.75;37.00;;;;;15.62;37.19;102396.78;5066920;28;61727;-80
2022/03/24 03:28:34;;;;;;;;;55.25;37.75;;;;;15.61;37.49;102400.25;5084593;28;62866;-80
2022/03/24 03:30:59;;;;;;;;;52.50;40.75;;;;;15.55;37.22;102400.81;5085127;28;62061;-80
2022/03/24 03:33:25;;;;;;;;;56.00;42.00;;;;;15.53;37.38;102402.50;5084233;28;61901;-80
2022/03/24 03:35:52;;;;;;;;;52.00;42.25;;;;;15.52;37.53;102400.69;5067088;28;61886;-80
2022/03/24 03:38:18;;;;;;;;;49.75;41.75;;;;;15.51;37.48;102406.78;5084493;28;62184;-80
2022/03/24 03:40:47;;;;;;;;;54.50;41.25;;;;;15.50;37.50;102399.69;5066763;28;61848;-80
2022/03/24 03:43:14;;;;;;;;;51.00;41.50;;;;;15.53;37.44;102398.13;5084294;28;62080;-80
2022/03/24 03:45:41;;;;;;;;;42.25;37.50;;;;;15.49;37.34;102397.91;5066597;28;62168;-81
2022/03/24 03:48:07;;;;;;;;;44.50;37.25;;;;;15.48;37.94;102394.31;5083881;28;61967;-80
2022/03/24 03:50:33;;;;;;;;;43.25;37.75;;;;;15.46;37.79;102388.03;5066215;28;61741;-80
2022/03/24 03:53:00;;;;;;;;;39.00;35.00;;;;;15.44;37.98;102395.00;5083377;27;61783;-80
2022/03/24 03:55:27;;;;;;;;;50.75;41.75;;;;;15.43;37.79;102402.88;5085309;28;61764;-80
2022/03/24 03:57:53;;;;;;;;;54.00;42.75;;;;;15.41;38.05;102400.16;5082443;27;62064;-80
2022/03/24 04:03:04;;;;;;;;;45.75;37.00;;;;;15.37;38.04;102399.91;5084186;28;61877;-80
2022/03/24 04:05:35;;;;;;;;;56.50;41.25;;;;;15.36;37.56;102400.72;5084426;28;61969;-80
2022/03/24 04:08:01;;;;;;;;;59.00;42.00;;;;;15.32;37.70;102397.94;5084047;28;62741;-80
2022/03/24 04:10:27;;;;;;;;;54.25;39.00;;;;;15.31;37.70;102397.84;5083298;27;61817;-80
2022/03/24 04:12:57;;;;;;;;;54.00;42.25;;;;;15.30;37.59;102396.06;5084679;28;61827;-80
2022/03/24 04:15:23;;;;;;;;;58.75;43.00;;;;;15.28;37.71;102401.25;5084154;28;62162;-80
2022/03/24 04:17:53;;;;;;;;;56.25;42.00;;;;;15.26;37.59;102402.03;5084037;28;63387;-81
2022/03/24 04:20:21;;;;;;;;;55.50;39.75;;;;;15.22;37.17;102400.94;5082773;28;62153;-80
2022/03/24 04:22:50;;;;;;;;;50.25;43.00;;;;;15.21;37.49;102403.50;5066056;28;61923;-80
2022/03/24 04:25:21;;;;;;;;;54.50;42.75;;;;;15.20;37.63;102397.31;5083178;27;62011;-81
2022/03/24 04:27:47;;;;;;;;;47.00;40.75;;;;;15.19;37.55;102395.50;5064972;28;63931;-80
2022/03/24 04:30:13;;;;;;;;;56.75;41.50;;;;;15.17;37.90;102390.94;5083979;28;61750;-80
2022/03/24 04:32:39;;;;;;;;;55.25;43.25;;;;;15.15;38.20;102401.47;5084060;28;61757;-81
2022/03/24 04:35:06;;;;;;;;;65.25;45.50;;;;;15.10;38.02;102401.22;5065645;28;62064;-80
2022/03/24 04:37:32;;;;;;;;;53.50;40.50;;;;;15.08;38.24;102399.31;5082055;28;64357;-80
2022/03/24 04:39:57;;;;;;;;;46.50;39.00;;;;;15.06;38.24;102398.31;5084007;28;61863;-81
2022/03/24 04:42:23;;;;;;;;;55.75;44.50;;;;;15.04;38.16;102399.97;5065933;28;61830;-80
2022/03/24 04:44:48;;;;;;;;;57.25;44.50;;;;;15.02;38.39;102399.03;5065288;28;62153;-80
2022/03/24 04:47:15;;;;;;;;;56.00;42.75;;;;;14.99;38.49;102406.78;5064985;28;63918;-80
2022/03/24 04:49:41;;;;;;;;;56.25;41.50;;;;;14.94;38.55;102395.97;5083829;28;61763;-81
2022/03/24 04:52:07;;;;;;;;;56.25;46.25;;;;;14.93;38.66;102400.34;5065856;28;61922;-80
2022/03/24 04:54:33;;;;;;;;;50.50;42.00;;;;;14.90;38.64;102394.88;5082862;28;62067;-80
2022/03/24 04:56:58;;;;;;;;;59.25;46.00;;;;;14.88;38.94;102400.94;5082691;28;61729;-80
2022/03/24 04:59:24;;;;;;;;;58.25;43.25;;;;;14.86;39.05;102397.28;5083740;28;61751;-80
2022/03/24 05:01:49;;;;;;;;;58.75;43.75;;;;;14.84;38.75;102394.56;5083935;28;61794;-80
2022/03/24 05:04:15;;;;;;;;;53.50;42.25;;;;;14.83;38.79;102395.41;5083297;28;62211;-80
2022/03/24 05:06:41;;;;;;;;;58.00;43.50;;;;;14.81;39.33;102390.88;5083319;28;62103;-80
2022/03/24 05:09:12;;;;;;;;;59.25;44.75;;;;;14.79;39.21;102398.72;5083541;28;61889;-80
2022/03/24 05:11:40;;;;;;;;;51.50;43.75;;;;;14.78;39.20;102398.63;5065666;28;62068;-80
2022/03/24 05:14:05;;;;;;;;;60.00;42.50;;;;;14.76;39.40;102397.63;5083405;27;61800;-80
2022/03/24 05:16:30;;;;;;;;;52.25;42.75;;;;;14.74;39.70;102400.22;5064775;28;62323;-80
2022/03/24 05:18:56;;;;;;;;;57.25;40.50;;;;;14.72;39.47;102394.84;5065087;28;61885;-80
2022/03/24 05:21:22;;;;;;;;;50.75;40.25;;;;;14.71;39.64;102402.66;5083845;28;61937;-80
2022/03/24 05:23:48;;;;;;;;;56.50;45.50;;;;;14.69;39.40;102401.69;5083737;28;62071;-80
2022/03/24 05:26:13;;;;;;;;;63.00;46.50;;;;;14.68;39.45;102410.44;5064212;28;63449;-80
2022/03/24 05:28:39;;;;;;;;;56.25;42.50;;;;;14.66;39.90;102407.72;5064698;28;61958;-80
2022/03/24 05:31:05;;;;;;;;;56.25;42.50;;;;;14.66;39.60;102410.34;5065339;28;61905;-80
2022/03/24 05:33:31;;;;;;;;;55.50;41.00;;;;;14.65;39.41;102413.84;5083250;28;61839;-80
2022/03/24 05:35:57;;;;;;;;;53.00;39.50;;;;;14.64;39.61;102403.19;5082646;28;62009;-80
2022/03/24 05:38:22;;;;;;;;;54.50;40.50;;;;;14.64;39.34;102408.47;5065074;28;61833;-80
2022/03/24 05:40:48;;;;;;;;;54.50;40.25;;;;;14.63;39.82;102406.63;5083157;28;62103;-80
2022/03/24 05:43:13;;;;;;;;;49.50;39.25;;;;;14.61;40.05;102411.84;5064484;28;62132;-80
2022/03/24 05:45:38;;;;;;;;;63.50;44.25;;;;;14.61;39.48;102408.28;5082571;28;62746;-80
2022/03/24 05:48:04;;;;;;;;;56.25;42.00;;;;;14.60;39.73;102412.66;5083218;28;61776;-80
2022/03/24 05:50:31;;;;;;;;;58.75;42.75;;;;;14.59;39.65;102413.50;5082885;28;61811;-80
2022/03/24 05:52:57;;;;;;;;;57.25;40.50;;;;;14.59;39.64;102410.88;5064727;28;61863;-80
2022/03/24 05:55:23;;;;;;;;;57.75;44.75;;;;;14.60;39.76;102412.66;5082715;28;62809;-80
2022/03/24 05:57:49;;;;;;;;;58.50;42.75;;;;;14.60;39.71;102409.13;5082194;28;61772;-80
2022/03/24 06:00:15;;;;;;;;;56.25;45.25;;;;;14.60;39.69;102412.66;5083306;28;61846;-80
2022/03/24 06:02:41;;;;;;;;;67.50;47.25;;;;;14.60;39.87;102415.31;5083318;28;61977;-80
2022/03/24 06:05:12;;;;;;;;;62.75;45.50;;;;;14.60;39.76;102415.31;5080113;28;63786;-80
2022/03/24 06:07:38;;;;;;;;;61.50;45.50;;;;;14.62;39.98;102421.59;5082553;28;61989;-82
2022/03/24 06:10:05;;;;;;;;;56.50;41.25;;;;;14.63;39.86;102417.19;5083022;28;61873;-79
2022/03/24 06:12:31;;;;;;;;;56.00;43.00;;;;;14.64;39.71;102419.03;5082693;28;61738;-80
2022/03/24 06:14:57;;;;;;;;;56.00;41.00;;;;;14.65;40.05;102420.84;5063174;28;63555;-78
2022/03/24 06:17:22;;;;;;;;;63.75;47.25;;;;;14.64;39.74;102417.28;5064487;28;61995;-79
2022/03/24 06:19:48;;;;;;;;;56.50;46.25;;;;;14.64;39.49;102417.28;5064166;28;61942;-80
2022/03/24 06:22:14;;;;;;;;;60.25;45.25;;;;;14.66;39.98;102417.38;5082546;28;61792;-76
2022/03/24 06:24:39;;;;;;;;;58.75;47.25;;;;;14.69;40.08;102420.19;5082038;28;61914;-76
2022/03/24 06:27:05;;;;;;;;;63.25;43.25;;;;;14.70;39.91;102425.56;5081577;28;61910;-75
2022/03/24 06:29:31;;;;;;;;;61.25;50.75;;;;;14.73;40.27;102416.88;5081297;28;61910;-76
2022/03/24 06:31:57;;;;;;;;;60.00;46.75;;;;;14.75;40.28;102409.94;5064252;28;61867;-76
2022/03/24 06:34:22;;;;;;;;;67.50;48.75;;;;;14.79;39.84;102417.22;5081317;28;61871;-76
2022/03/24 06:36:48;;;;;;;;;61.75;48.25;;;;;14.80;40.15;102419.00;5081697;28;61771;-75
2022/03/24 06:39:13;;;;;;;;;66.00;52.00;;;;;14.85;40.34;102420.19;5081923;28;61784;-76
2022/03/24 06:41:39;;;;;;;;;68.25;49.50;;;;;14.88;40.17;102422.06;5064078;28;61978;-78
2022/03/24 06:44:06;;;;;;;;;68.25;48.75;;;;;14.88;40.23;102416.78;5080149;28;62868;-77
2022/03/24 06:46:32;;;;;;;;;65.25;49.50;;;;;14.93;40.03;102420.56;5078820;28;61854;-78
2022/03/24 06:48:59;;;;;;;;;63.75;48.50;;;;;14.98;40.41;102416.44;5080885;28;61730;-73
2022/03/24 06:51:25;;;;;;;;;58.00;45.00;;;;;15.06;40.29;102419.47;5078043;28;61854;-80
2022/03/24 06:53:51;;;;;;;;;56.00;47.00;;;;;15.13;40.26;102419.91;5061626;28;63619;-81
2022/03/24 06:56:16;;;;;;;;;66.50;49.50;;;;;15.33;40.40;102425.31;5079265;28;61799;-83
2022/03/24 06:58:43;;;;;;;;;64.50;51.00;;;;;15.66;39.52;102426.13;5062122;28;61921;-82
2022/03/24 07:01:09;;;;;;;;;60.75;47.25;;;;;16.03;38.44;102425.31;5081003;28;61851;-83
2022/03/24 07:03:35;;;;;;;;;62.75;46.25;;;;;16.41;37.59;102423.59;5080461;28;61959;-80
2022/03/24 07:06:01;;;;;;;;;58.25;46.00;;;;;16.69;37.17;102428.41;5062415;28;61988;-80
2022/03/24 07:08:27;;;;;;;;;66.25;49.00;;;;;16.98;36.95;102433.25;5081345;28;61996;-80
2022/03/24 07:10:53;;;;;;;;;59.50;45.25;;;;;17.30;36.42;102430.25;5081129;28;62267;-82
2022/03/24 07:13:19;;;;;;;;;60.75;47.00;;;;;17.58;35.86;102427.03;5062851;28;63829;-81
2022/03/24 07:15:44;;;;;;;;;58.00;44.25;;;;;17.77;35.49;102433.09;5081805;28;61755;-80
2022/03/24 07:18:10;;;;;;;;;51.75;40.25;;;;;17.92;34.62;102424.91;5065405;28;61845;-81
2022/03/24 07:20:38;;;;;;;;;56.50;43.00;;;;;18.01;34.37;102433.22;5084100;28;61918;-81
2022/03/24 07:23:04;;;;;;;;;59.00;41.75;;;;;18.15;33.82;102429.38;5084515;28;61717;-81
2022/03/24 07:25:30;;;;;;;;;56.25;40.25;;;;;18.44;33.38;102429.59;5065930;28;61970;-80
2022/03/24 07:27:57;;;;;;;;;41.75;37.75;;;;;18.98;32.43;102432.56;5065982;28;61921;-81
2022/03/24 07:30:22;;;;;;;;;45.25;38.25;;;;;19.56;30.61;102430.16;5085109;28;61713;-81
2022/03/24 07:32:48;;;;;;;;;55.00;40.25;;;;;19.76;31.29;102425.50;5066049;28;64430;-78
2022/03/24 07:35:14;;;;;;;;;53.00;39.50;;;;;20.21;30.60;102426.06;5067705;28;61939;-80
2022/03/24 07:37:42;;;;;;;;;49.00;40.00;;;;;20.72;29.71;102424.97;5082769;28;61762;-82
2022/03/24 07:40:09;;;;;;;;;48.00;36.00;;;;;20.75;29.41;102417.03;5083189;28;61923;-79
2022/03/24 07:42:37;;;;;;;;;45.75;38.25;;;;;20.65;28.43;102430.06;5071263;28;63787;-79
2022/03/24 07:45:04;;;;;;;;;54.25;37.75;;;;;20.40;28.44;102431.97;5065715;28;61669;-79
2022/03/24 07:47:30;;;;;;;;;49.75;40.25;;;;;20.14;27.97;102433.84;5065928;28;62041;-80
2022/03/24 07:49:56;;;;;;;;;50.50;38.75;;;;;19.93;29.08;102442.06;5083778;27;62030;-79
2022/03/24 07:52:25;;;;;;;;;46.75;35.75;;;;;19.86;29.78;102437.34;5064453;28;63759;-79
2022/03/24 07:54:55;;;;;;;;;40.00;34.25;;;;;19.73;29.27;102439.63;5082657;28;62054;-78
2022/03/24 07:57:21;;;;;;;;;40.25;33.00;;;;;19.66;29.29;102440.22;5082416;28;61846;-79
2022/03/24 07:59:46;;;;;;;;;45.00;35.50;;;;;19.61;29.57;102440.09;5084914;28;61781;-79
2022/03/24 08:02:12;;;;;;;;;60.75;38.50;;;;;19.57;29.82;102437.28;5065854;28;63688;-79
2022/03/24 08:04:38;;;;;;;;;46.75;35.75;;;;;19.48;29.58;102435.19;5084647;28;61826;-79
2022/03/24 08:07:04;;;;;;;;;52.50;39.50;;;;;19.35;29.65;102433.88;5066303;28;61861;-78
2022/03/24 08:09:33;;;;;;;;;46.00;37.50;;;;;19.28;29.59;102434.53;5066519;28;61897;-79
2022/03/24 08:11:59;;;;;;;;;49.75;38.75;;;;;19.25;29.67;102438.81;5084347;28;62172;-79
2022/03/24 08:14:25;;;;;;;;;45.00;34.50;;;;;19.23;29.59;102444.09;5065778;28;61967;-79
2022/03/24 08:16:50;;;;;;;;;44.75;36.50;;;;;19.19;29.75;102442.16;5066763;28;61800;-79
2022/03/24 08:19:16;;;;;;;;;48.75;38.75;;;;;19.21;29.62;102441.34;5065838;28;61717;-78
2022/03/24 08:21:42;;;;;;;;;43.50;36.50;;;;;19.23;29.67;102445.84;5065557;28;64719;-78
2022/03/24 08:24:09;;;;;;;;;54.25;40.00;;;;;19.26;29.66;102435.28;5082808;28;61923;-78
2022/03/24 08:26:35;;;;;;;;;52.50;35.25;;;;;19.23;29.55;102445.84;5080735;28;61980;-78
2022/03/24 08:29:01;;;;;;;;;52.50;40.00;;;;;19.24;30.07;102440.59;5064208;28;61825;-78
2022/03/24 08:31:26;;;;;;;;;48.00;36.25;;;;;19.25;29.93;102447.69;5080754;28;63413;-78
2022/03/24 08:33:52;;;;;;;;;55.00;38.25;;;;;19.28;30.15;102444.25;5082118;28;61792;-78
2022/03/24 08:36:18;;;;;;;;;43.00;35.00;;;;;19.28;30.05;102445.16;5063683;28;61805;-78
2022/03/24 08:38:43;;;;;;;;;41.00;37.50;;;;;19.30;29.66;102448.78;5083649;28;61747;-78
2022/03/24 08:41:09;;;;;;;;;52.00;40.00;;;;;19.33;29.80;102448.00;5083734;28;62931;-78
2022/03/24 08:43:34;;;;;;;;;52.00;42.00;;;;;19.35;29.63;102447.19;5083975;28;61855;-79
2022/03/24 08:45:59;;;;;;;;;49.75;37.75;;;;;19.36;29.34;102448.97;5082557;28;61820;-79
2022/03/24 08:48:25;;;;;;;;;44.75;33.25;;;;;19.38;29.54;102449.94;5082568;28;61863;-78
2022/03/24 08:50:51;;;;;;;;;48.50;40.00;;;;;19.39;29.38;102453.53;5064404;28;64228;-78
2022/03/24 08:53:16;;;;;;;;;49.50;37.25;;;;;19.38;29.14;102459.69;5065541;28;61834;-79
2022/03/24 08:55:42;;;;;;;;;55.25;39.50;;;;;19.42;29.61;102450.97;5065725;28;62392;-78
2022/03/24 08:58:08;;;;;;;;;44.00;34.75;;;;;19.46;29.56;102463.53;5083737;28;62192;-79
2022/03/24 09:00:34;;;;;;;;;43.25;35.75;;;;;19.52;29.36;102465.53;5065223;28;63731;-79
2022/03/24 09:03:00;;;;;;;;;40.75;32.75;;;;;19.54;28.92;102461.16;5084022;28;61802;-79
2022/03/24 09:05:26;;;;;;;;;56.25;38.00;;;;;19.57;29.75;102466.56;5083138;28;62058;-79
2022/03/24 09:07:52;;;;;;;;;39.75;34.75;;;;;19.61;28.66;102463.16;5084060;28;61764;-79
2022/03/24 09:10:17;;;;;;;;;51.75;37.00;;;;;19.64;28.34;102459.69;5083374;28;63094;-78
2022/03/24 09:12:46;;;;;;;;;50.00;37.00;;;;;19.67;28.95;102465.13;5083879;28;61830;-78
2022/03/24 09:15:17;;;;;;;;;51.75;36.00;;;;;19.69;28.29;102458.06;5065475;28;61939;-79
2022/03/24 09:17:43;;;;;;;;;47.50;37.00;;;;;19.73;28.13;102463.63;5083918;28;62079;-79
2022/03/24 09:20:11;;;;;;;;;41.25;36.25;;;;;19.73;28.23;102466.28;5063889;28;63792;-78
2022/03/24 09:22:41;;;;;;;;;53.50;40.25;;;;;19.77;28.44;102460.22;5065129;28;61822;-78
2022/03/24 09:25:08;;;;;;;;;54.00;40.25;;;;;19.82;28.03;102460.34;5082038;28;62078;-78
2022/03/24 09:27:35;;;;;;;;;48.75;39.00;;;;;19.85;28.51;102468.44;5083295;28;61787;-78
2022/03/24 09:30:02;;;;;;;;;46.75;37.00;;;;;19.92;27.73;102467.78;5082893;28;62390;-78
2022/03/24 09:32:28;;;;;;;;;55.50;42.00;;;;;19.96;27.58;102459.03;5065200;28;61878;-78
2022/03/24 09:34:54;;;;;;;;;48.50;38.75;;;;;20.01;28.42;102459.22;5064413;28;61938;-78
2022/03/24 09:37:22;;;;;;;;;53.25;40.25;;;;;20.05;28.07;102454.84;5083302;28;62150;-78
2022/03/24 09:39:48;;;;;;;;;51.00;39.00;;;;;20.11;27.78;102455.94;5063487;28;64204;-78
2022/03/24 09:42:14;;;;;;;;;54.25;41.50;;;;;20.18;28.39;102455.31;5064708;28;61725;-78
2022/03/24 09:44:45;;;;;;;;;54.50;41.25;;;;;20.19;28.26;102451.78;5064854;28;61749;-78
2022/03/24 09:47:13;;;;;;;;;49.75;37.50;;;;;20.25;28.01;102452.84;5082881;28;62082;-78
2022/03/24 09:49:40;;;;;;;;;54.00;43.50;;;;;20.27;27.67;102456.47;5076292;27;64898;-78
2022/03/24 09:52:07;;;;;;;;;54.00;38.00;;;;;20.27;27.46;102452.03;5062652;28;61900;-78
2022/03/24 09:54:33;;;;;;;;;46.75;38.25;;;;;20.28;27.88;102445.81;5044305;28;61993;-79
2022/03/24 09:57:09;;;;;;;;;48.25;39.25;;;;;20.37;28.05;102451.47;5044231;28;61777;-78
2022/03/24 09:59:35;;;;;;;;;50.75;38.75;;;;;20.46;27.48;102449.91;5043702;28;63485;-78
2022/03/24 10:02:03;;;;;;;;;55.75;41.25;;;;;20.51;28.15;102453.63;5044094;28;61875;-78
2022/03/24 10:04:44;;;;;;;;;59.00;38.25;;;;;20.59;28.23;102455.72;5061765;28;61974;-78
2022/03/24 10:07:09;;;;;;;;;57.25;41.50;;;;;20.65;27.69;102454.97;5062269;28;61854;-78
2022/03/24 10:09:44;;;;;;;;;52.75;40.75;;;;;20.74;27.76;102449.03;5061867;28;62962;-78
2022/03/24 10:12:21;;;;;;;;;50.75;37.25;;;;;20.80;27.53;102442.09;5077749;28;61904;-78
2022/03/24 10:15:08;;;;;;;;;53.00;40.75;;;;;20.88;27.47;102446.75;5040603;28;61825;-78
2022/03/24 10:17:35;;;;;;;;;52.75;40.75;;;;;20.92;27.09;102441.53;5061425;28;61990;-78
2022/03/24 10:20:14;;;;;;;;;39.00;35.00;;;;;21.02;27.56;102448.06;5043195;28;63870;-78
2022/03/24 10:22:58;;;;;;;;;53.75;43.00;;;;;21.07;27.03;102442.84;5062287;28;61930;-78
2022/03/24 10:25:26;;;;;;;;;55.75;38.00;;;;;21.16;26.97;102443.06;5062393;28;61973;-78
2022/03/24 10:28:03;;;;;;;;;53.25;39.50;;;;;21.18;26.48;102441.34;5061378;28;61803;-79
2022/03/24 10:31:04;;;;;;;;;46.25;37.50;;;;;21.23;26.74;102437.06;5061513;28;62180;-78
2022/03/24 10:33:33;;;;;;;;;53.50;41.00;;;;;21.32;26.79;102429.28;5043279;28;61801;-78
2022/03/24 10:36:17;;;;;;;;;52.25;36.75;;;;;21.42;27.10;102434.03;5062200;28;61733;-78
2022/03/24 10:38:56;;;;;;;;;52.25;41.00;;;;;21.57;26.77;102427.25;5044345;28;61799;-78
2022/03/24 10:41:30;;;;;;;;;51.00;37.25;;;;;21.70;26.60;102434.75;5061931;28;62227;-78
2022/03/24 10:44:05;;;;;;;;;48.50;36.75;;;;;21.79;26.27;102426.06;5061966;28;61925;-78
2022/03/24 10:46:33;;;;;;;;;46.75;38.00;;;;;21.90;26.23;102426.31;5061979;28;61757;-78
2022/03/24 10:49:14;;;;;;;;;52.00;37.50;;;;;22.01;26.67;102416.75;5061330;28;61797;-79
2022/03/24 10:51:43;;;;;;;;;50.00;36.50;;;;;22.11;25.76;102420.53;5062989;28;62106;-78
2022/03/24 10:54:15;;;;;;;;;44.25;34.75;;;;;22.24;25.74;102422.69;5065458;28;61712;-79
2022/03/24 10:57:12;;;;;;;;;51.50;37.25;;;;;22.37;25.87;102424.75;5046901;28;61820;-79
2022/03/24 10:59:46;;;;;;;;;39.75;32.00;;;;;22.50;25.43;102428.59;5063348;28;61915;-79
2022/03/24 11:02:13;;;;;;;;;51.25;37.50;;;;;22.61;25.13;102419.00;5064331;28;63287;-79
2022/03/24 11:04:39;;;;;;;;;52.75;37.50;;;;;22.77;24.90;102422.00;5046394;28;61930;-79
2022/03/24 11:07:04;;;;;;;;;40.00;33.00;;;;;22.91;24.63;102417.84;5065081;28;61791;-79
2022/03/24 11:09:33;;;;;;;;;51.75;40.75;;;;;23.08;24.69;102410.16;5065620;28;61844;-78
2022/03/24 11:12:28;;;;;;;;;46.75;34.00;;;;;23.27;24.75;102414.97;5046857;28;63499;-79
2022/03/24 11:14:58;;;;;;;;;43.25;36.25;;;;;23.43;24.03;102417.94;5072856;28;61916;-79
2022/03/24 11:17:26;;;;;;;;;43.75;37.50;;;;;23.58;23.67;102407.47;5085265;28;61946;-78